Time;durP1;ratioP1;P1;durP2;ratioP2;P2;SDS_P1;SDS_P2;PMS_P1;PMS_P2;Temp;Humidity;BMP_temperature;BMP_pressure;BME280_temperature;BME280_humidity;BME280_pressure;Samples;Min_cycle;Max_cycle;Signal;HPM_P1;HPM_P2
2022/05/25 00:02:01;;;;;;;6.60;6.00;;;8.50;99.90;;;;;;5048045;28;20506;-76
2022/05/25 00:04:27;;;;;;;7.70;6.50;;;8.50;99.90;;;;;;5058436;28;20178;-76
2022/05/25 00:06:53;;;;;;;8.02;6.75;;;8.50;99.90;;;;;;5062878;28;20052;-77
2022/05/25 00:09:19;;;;;;;9.75;7.50;;;8.40;99.90;;;;;;5056224;28;20376;-76
2022/05/25 00:11:45;;;;;;;8.05;7.25;;;8.40;99.90;;;;;;5056179;28;20486;-76
2022/05/25 00:14:11;;;;;;;7.95;7.15;;;8.30;99.90;;;;;;5052718;28;20043;-76
2022/05/25 00:16:37;;;;;;;8.32;7.32;;;8.40;99.90;;;;;;5059810;28;20127;-76
2022/05/25 00:21:48;;;;;;;8.05;6.57;;;8.30;99.90;;;;;;5055960;28;20041;-76
2022/05/25 00:24:17;;;;;;;7.00;6.30;;;8.30;99.90;;;;;;5052485;28;20500;-76
2022/05/25 00:26:42;;;;;;;8.65;7.25;;;8.30;99.90;;;;;;5041060;28;20082;-76
2022/05/25 00:29:09;;;;;;;10.38;7.90;;;8.30;99.90;;;;;;5055492;28;20414;-76
2022/05/25 00:31:36;;;;;;;7.32;6.57;;;8.30;99.90;;;;;;5039029;28;20051;-77
2022/05/25 00:34:05;;;;;;;11.45;7.47;;;8.30;99.90;;;;;;5038737;28;20087;-76
2022/05/25 00:36:31;;;;;;;9.27;8.07;;;8.30;99.90;;;;;;5055871;28;20040;-76
2022/05/25 00:38:57;;;;;;;8.15;7.35;;;8.30;99.90;;;;;;5047173;28;20403;-76
2022/05/25 00:41:29;;;;;;;7.95;7.15;;;8.30;99.90;;;;;;5045305;28;20054;-76
2022/05/25 00:43:56;;;;;;;8.10;7.13;;;8.30;99.90;;;;;;5039108;28;20044;-76
2022/05/25 00:46:25;;;;;;;8.40;7.47;;;8.30;99.90;;;;;;5038738;28;20037;-76
2022/05/25 00:48:54;;;;;;;9.32;7.53;;;8.30;99.90;;;;;;5057306;28;20085;-77
2022/05/25 00:51:27;;;;;;;8.70;7.68;;;8.20;99.90;;;;;;5051131;28;20040;-77
2022/05/25 00:54:04;;;;;;;;;;;8.20;99.90;;;;;;5047275;28;20047;-76
2022/05/25 00:56:33;;;;;;;11.05;8.10;;;8.20;99.90;;;;;;5039014;28;20383;-76
2022/05/25 00:59:08;;;;;;;9.38;8.02;;;8.20;99.90;;;;;;5038022;28;20044;-76
2022/05/25 01:01:33;;;;;;;8.93;8.00;;;8.10;99.90;;;;;;5040458;28;20043;-77
2022/05/25 01:03:59;;;;;;;9.43;7.95;;;8.10;99.90;;;;;;5063086;28;20402;-76
2022/05/25 01:06:34;;;;;;;9.40;8.20;;;8.10;99.90;;;;;;5038276;28;20059;-76
2022/05/25 01:09:07;;;;;;;10.10;8.18;;;8.10;99.90;;;;;;5038009;28;20040;-76
2022/05/25 01:11:54;;;;;;;9.90;8.90;;;8.10;99.90;;;;;;5046558;28;20032;-77
2022/05/25 01:15:01;;;;;;;10.23;8.32;;;8.10;99.90;;;;;;5068412;28;20097;-76
2022/05/25 01:17:49;;;;;;;11.57;9.20;;;8.10;99.90;;;;;;5053269;28;20040;-77
2022/05/25 01:20:27;;;;;;;10.13;8.75;;;8.10;99.90;;;;;;5057790;28;20079;-76
2022/05/25 01:23:11;;;;;;;10.98;9.00;;;8.10;99.90;;;;;;5048692;28;20127;-77
2022/05/25 01:26:08;;;;;;;13.93;9.95;;;8.00;99.90;;;;;;5054404;28;20507;-76
2022/05/25 01:28:55;;;;;;;11.25;9.32;;;8.10;99.90;;;;;;5053963;28;20390;-76
2022/05/25 01:31:34;;;;;;;10.98;9.18;;;8.10;99.90;;;;;;5054557;28;20135;-77
2022/05/25 01:34:20;;;;;;;10.70;9.38;;;8.00;99.90;;;;;;5054324;28;20040;-76
2022/05/25 01:37:04;;;;;;;11.07;9.15;;;8.00;99.90;;;;;;5041488;28;20399;-76
2022/05/25 01:39:33;;;;;;;14.55;11.00;;;8.00;99.90;;;;;;5047155;28;20126;-76
2022/05/25 01:42:07;;;;;;;11.30;9.70;;;8.00;99.90;;;;;;5037935;28;20058;-76
2022/05/25 01:44:56;;;;;;;11.68;9.43;;;7.90;99.90;;;;;;5041751;28;20040;-77
2022/05/25 01:47:26;;;;;;;10.98;9.55;;;7.90;99.90;;;;;;5046080;28;20123;-76
2022/05/25 01:49:57;;;;;;;12.63;10.25;;;8.00;99.90;;;;;;5046640;28;20043;-76
2022/05/25 01:52:31;;;;;;;13.60;11.18;;;7.90;99.90;;;;;;5038012;28;20037;-76
2022/05/25 01:55:00;;;;;;;14.50;11.57;;;7.90;99.90;;;;;;5037314;28;20487;-76
2022/05/25 01:57:31;;;;;;;14.45;11.65;;;8.00;99.90;;;;;;5037566;28;20045;-76
2022/05/25 01:59:57;;;;;;;12.95;10.43;;;8.00;99.90;;;;;;5037191;28;20490;-76
2022/05/25 02:05:12;;;;;;;17.05;11.40;;;7.90;99.90;;;;;;5065376;28;20040;-76
2022/05/25 02:07:43;;;;;;;16.23;12.23;;;7.90;99.90;;;;;;5056865;28;20040;-76
2022/05/25 02:10:24;;;;;;;15.73;12.30;;;7.90;99.90;;;;;;5056924;28;20094;-76
2022/05/25 02:13:16;;;;;;;15.77;12.13;;;7.90;99.90;;;;;;5057092;28;20509;-76
2022/05/25 02:15:59;;;;;;;15.00;11.50;;;7.90;99.90;;;;;;5047162;28;20039;-76
2022/05/25 02:18:41;;;;;;;15.63;12.38;;;7.90;99.90;;;;;;5037018;28;20129;-76
2022/05/25 02:21:14;;;;;;;15.88;12.18;;;7.90;99.90;;;;;;5036762;28;20059;-76
2022/05/25 02:23:57;;;;;;;15.27;11.85;;;7.90;99.90;;;;;;5053660;28;20189;-77
2022/05/25 02:26:38;;;;;;;18.80;13.55;;;7.90;99.90;;;;;;5037150;28;20037;-77
2022/05/25 02:29:27;;;;;;;16.73;12.65;;;7.90;99.90;;;;;;5043391;28;20093;-77
2022/05/25 02:32:04;;;;;;;17.40;13.52;;;7.90;99.90;;;;;;5037868;28;20043;-76
2022/05/25 02:34:33;;;;;;;18.60;13.02;;;7.90;99.90;;;;;;5053533;28;20032;-76
2022/05/25 02:36:59;;;;;;;14.75;12.40;;;7.90;99.90;;;;;;5036931;28;20076;-76
2022/05/25 02:39:25;;;;;;;17.52;13.60;;;8.00;99.90;;;;;;5063485;28;20040;-77
2022/05/25 02:41:54;;;;;;;18.38;13.68;;;7.90;99.90;;;;;;5042045;28;20043;-77
2022/05/25 02:44:20;;;;;;;15.45;12.50;;;7.90;99.90;;;;;;5040806;28;20040;-77
2022/05/25 02:46:47;;;;;;;17.25;12.90;;;7.90;99.90;;;;;;5041075;28;20094;-77
2022/05/25 02:49:13;;;;;;;17.08;12.65;;;7.90;99.90;;;;;;5057083;28;20036;-77
2022/05/25 02:51:39;;;;;;;19.00;13.48;;;7.90;99.90;;;;;;5044757;28;20031;-76
2022/05/25 02:54:06;;;;;;;18.45;12.90;;;7.90;99.90;;;;;;5048512;28;20028;-76
2022/05/25 02:56:32;;;;;;;16.85;12.93;;;7.90;99.90;;;;;;5040811;28;20079;-76
2022/05/25 02:58:58;;;;;;;17.58;13.57;;;7.90;99.90;;;;;;5040338;28;20072;-77
2022/05/25 03:01:24;;;;;;;18.83;14.43;;;7.90;99.90;;;;;;5040611;28;20045;-77
2022/05/25 03:03:50;;;;;;;19.48;13.95;;;7.90;99.90;;;;;;5044633;28;20036;-77
2022/05/25 03:06:16;;;;;;;18.83;14.15;;;7.80;99.90;;;;;;5048357;28;20038;-77
2022/05/25 03:08:42;;;;;;;20.63;14.45;;;7.90;99.90;;;;;;5048178;28;20410;-76
2022/05/25 03:11:08;;;;;;;21.05;14.70;;;7.90;99.90;;;;;;5040364;28;20036;-76
2022/05/25 03:13:35;;;;;;;18.40;14.00;;;7.90;99.90;;;;;;5040157;28;20456;-77
2022/05/25 03:16:03;;;;;;;20.25;14.60;;;7.90;99.90;;;;;;5040525;28;20438;-76
2022/05/25 03:18:30;;;;;;;20.52;15.55;;;7.90;99.90;;;;;;5046573;28;20036;-76
2022/05/25 03:20:58;;;;;;;19.95;14.07;;;7.90;99.90;;;;;;5048093;28;20057;-76
2022/05/25 03:23:24;;;;;;;22.15;14.90;;;7.90;99.90;;;;;;5040069;28;20074;-77
2022/05/25 03:25:50;;;;;;;20.38;14.32;;;7.90;99.90;;;;;;5056948;28;20032;-77
2022/05/25 03:28:16;;;;;;;21.95;15.15;;;7.90;99.90;;;;;;5056344;28;20071;-77
2022/05/25 03:30:44;;;;;;;20.10;14.75;;;7.90;99.90;;;;;;5040027;28;20070;-77
2022/05/25 03:33:10;;;;;;;22.58;15.25;;;7.90;99.90;;;;;;5047941;28;20393;-77
2022/05/25 03:35:36;;;;;;;18.92;13.23;;;7.90;99.90;;;;;;5047748;28;20041;-76
2022/05/25 03:38:02;;;;;;;20.02;14.80;;;7.90;99.90;;;;;;5056537;28;20051;-76
2022/05/25 03:40:28;;;;;;;21.55;15.30;;;7.90;99.90;;;;;;5039937;28;20102;-76
2022/05/25 03:42:54;;;;;;;21.83;14.85;;;8.00;99.90;;;;;;5047672;28;20036;-77
2022/05/25 03:45:25;;;;;;;21.40;14.52;;;8.00;99.90;;;;;;5047830;28;20042;-76
2022/05/25 03:47:52;;;;;;;19.00;14.68;;;8.00;99.90;;;;;;5038933;28;20041;-76
2022/05/25 03:50:20;;;;;;;21.75;15.65;;;8.00;99.90;;;;;;5039998;28;20044;-77
2022/05/25 03:52:47;;;;;;;22.30;14.82;;;8.00;99.90;;;;;;5039463;28;20036;-77
2022/05/25 03:55:12;;;;;;;19.60;14.35;;;8.00;99.90;;;;;;5039446;28;20433;-77
2022/05/25 03:57:40;;;;;;;21.20;14.95;;;8.00;99.90;;;;;;5050243;28;20048;-77
2022/05/25 04:00:07;;;;;;;21.35;15.60;;;8.00;99.90;;;;;;5059520;28;20051;-77
2022/05/25 04:02:33;;;;;;;23.02;14.82;;;8.10;99.90;;;;;;5059427;28;20040;-77
2022/05/25 04:05:08;;;;;;;21.33;14.63;;;8.10;99.90;;;;;;5059460;28;20036;-77
2022/05/25 04:07:44;;;;;;;21.38;14.90;;;8.20;99.90;;;;;;5058436;28;20046;-77
2022/05/25 04:10:15;;;;;;;24.20;16.17;;;8.20;99.90;;;;;;5076048;28;20073;-77
2022/05/25 04:12:43;;;;;;;22.90;15.30;;;8.20;99.90;;;;;;5047602;28;20398;-77
2022/05/25 04:15:11;;;;;;;22.95;15.75;;;8.30;99.90;;;;;;5040541;28;20072;-77
2022/05/25 04:17:36;;;;;;;23.83;15.95;;;8.30;99.90;;;;;;5047259;28;20047;-77
2022/05/25 04:20:06;;;;;;;25.25;15.93;;;8.40;99.90;;;;;;5039309;28;20430;-77
2022/05/25 04:22:32;;;;;;;24.73;16.48;;;8.40;99.90;;;;;;5039236;28;20072;-77
2022/05/25 04:24:59;;;;;;;25.25;15.52;;;8.50;99.90;;;;;;5047344;28;20097;-77
2022/05/25 04:27:28;;;;;;;25.45;16.55;;;8.50;99.90;;;;;;5055531;28;20048;-77
2022/05/25 04:29:56;;;;;;;23.38;14.98;;;8.70;99.90;;;;;;5052067;28;20123;-77
2022/05/25 04:32:24;;;;;;;21.90;14.13;;;8.90;99.90;;;;;;5045393;28;20044;-77
2022/05/25 04:34:50;;;;;;;19.23;14.27;;;9.10;99.90;;;;;;5038646;28;20049;-77
2022/05/25 04:40:11;;;;;;;17.23;11.80;;;9.70;99.90;;;;;;5063746;28;20036;-77
2022/05/25 04:42:37;;;;;;;14.75;10.55;;;10.00;99.90;;;;;;5042012;28;20058;-77
2022/05/25 04:45:06;;;;;;;13.30;10.32;;;10.30;99.90;;;;;;5040757;28;20383;-78
2022/05/25 04:47:34;;;;;;;11.00;9.27;;;10.60;99.90;;;;;;5046461;28;20036;-78
2022/05/25 04:50:06;;;;;;;10.60;9.35;;;10.80;99.90;;;;;;5058747;28;20048;-78
2022/05/25 04:52:34;;;;;;;10.70;9.23;;;11.10;99.90;;;;;;5075137;28;20176;-77
2022/05/25 04:55:02;;;;;;;11.32;8.90;;;11.40;99.90;;;;;;5057522;28;20079;-78
2022/05/25 04:57:27;;;;;;;10.05;8.82;;;11.60;99.90;;;;;;5050451;28;20198;-78
2022/05/25 04:59:59;;;;;;;9.65;8.20;;;11.90;99.90;;;;;;5055691;28;20075;-78
2022/05/25 05:02:26;;;;;;;10.13;9.05;;;12.20;99.90;;;;;;5048562;28;20032;-78
2022/05/25 05:04:52;;;;;;;9.73;8.75;;;12.40;99.90;;;;;;5072715;28;20040;-79
2022/05/25 05:07:32;;;;;;;8.82;7.75;;;12.70;99.90;;;;;;5038276;28;20059;-79
2022/05/25 05:09:59;;;;;;;9.23;7.78;;;12.90;99.90;;;;;;5038054;28;20207;-78
2022/05/25 05:12:30;;;;;;;9.15;8.25;;;13.20;99.90;;;;;;5048210;28;20115;-79
2022/05/25 05:14:57;;;;;;;9.50;8.23;;;13.50;99.90;;;;;;5066693;28;20105;-78
2022/05/25 05:17:26;;;;;;;10.35;8.10;;;13.70;99.90;;;;;;5050805;28;20046;-78
2022/05/25 05:19:52;;;;;;;9.52;8.18;;;14.00;99.90;;;;;;5045745;28;20064;-78
2022/05/25 05:22:17;;;;;;;8.63;7.70;;;14.10;99.90;;;;;;5037945;28;20483;-79
2022/05/25 05:24:46;;;;;;;9.18;8.27;;;14.40;99.90;;;;;;5038089;28;20376;-78
2022/05/25 05:27:15;;;;;;;10.10;8.95;;;14.60;99.90;;;;;;5038566;28;20395;-79
2022/05/25 05:29:40;;;;;;;9.07;8.18;;;14.90;99.90;;;;;;5064671;28;20514;-79
2022/05/25 05:32:10;;;;;;;10.00;8.48;;;15.00;99.90;;;;;;5058215;28;20036;-78
2022/05/25 05:34:38;;;;;;;11.60;8.82;;;15.30;99.90;;;;;;5056836;28;20055;-78
2022/05/25 05:37:19;;;;;;;9.50;8.57;;;15.50;99.90;;;;;;5057727;28;20109;-79
2022/05/25 05:39:54;;;;;;;9.40;8.40;;;15.70;99.90;;;;;;5057240;28;20052;-79
2022/05/25 05:42:24;;;;;;;10.05;8.80;;;15.70;99.90;;;;;;5057418;28;20413;-79
2022/05/25 05:44:58;;;;;;;11.15;9.13;;;15.80;99.90;;;;;;5046846;28;20091;-78
2022/05/25 05:48:01;;;;;;;10.38;9.38;;;15.80;99.90;;;;;;5037610;28;20101;-79
2022/05/25 05:50:32;;;;;;;13.33;9.17;;;15.50;99.90;;;;;;5037492;28;20395;-79
2022/05/25 05:52:58;;;;;;;10.60;8.88;;;15.00;99.90;;;;;;5069584;28;20059;-79
2022/05/25 05:55:27;;;;;;;11.88;9.00;;;14.60;99.90;;;;;;5045350;28;20064;-78
2022/05/25 05:57:54;;;;;;;11.35;9.30;;;14.30;99.90;;;;;;5053039;28;20055;-78
2022/05/25 06:00:25;;;;;;;11.15;9.60;;;14.10;99.90;;;;;;5076971;28;20485;-78
2022/05/25 06:02:51;;;;;;;11.32;9.82;;;13.80;99.90;;;;;;5040480;28;20371;-78
2022/05/25 06:05:17;;;;;;;11.43;9.93;;;13.50;99.90;;;;;;5057442;28;20126;-78
2022/05/25 06:07:43;;;;;;;11.20;9.70;;;13.30;99.90;;;;;;5056688;28;20139;-78
2022/05/25 06:10:09;;;;;;;11.93;10.18;;;13.20;99.90;;;;;;5054043;28;20043;-78
2022/05/25 06:12:36;;;;;;;12.93;9.73;;;13.00;99.90;;;;;;5053588;28;20141;-78
2022/05/25 06:23:05;;;;;;;13.25;9.52;;;12.80;99.90;;;;;;5083162;28;20047;-81
2022/05/25 06:25:34;;;;;;;12.38;10.80;;;12.70;99.90;;;;;;5033595;28;20042;-80
2022/05/25 06:32:20;;;;;;;12.52;9.85;;;12.70;99.90;;;;;;5093547;28;20286;-80
2022/05/25 06:38:40;;;;;;;13.15;10.23;;;12.70;99.90;;;;;;5091104;28;20430;-79
2022/05/25 06:41:30;;;;;;;14.02;9.63;;;12.70;99.90;;;;;;5076634;28;20047;-80
2022/05/25 06:44:11;;;;;;;12.57;10.82;;;12.80;99.90;;;;;;5039747;28;20490;-80
2022/05/25 06:47:11;;;;;;;12.73;10.48;;;12.80;99.90;;;;;;5065762;28;20044;-80
2022/05/25 06:50:08;;;;;;;12.50;9.57;;;12.90;99.90;;;;;;5058271;28;20040;-80
2022/05/25 06:53:21;;;;;;;14.70;10.07;;;12.90;99.90;;;;;;5066069;28;20123;-82
2022/05/25 06:56:35;;;;;;;11.38;9.73;;;13.00;99.90;;;;;;5031002;28;20056;-81
2022/05/25 06:59:45;;;;;;;12.85;10.45;;;13.10;99.90;;;;;;5047688;28;20099;-81
2022/05/25 07:06:44;;;;;;;12.48;9.75;;;13.20;99.90;;;;;;5038843;28;20526;-80
2022/05/25 07:10:09;;;;;;;;;;;;;;;;;;;;;
2022/05/25 07:13:07;;;;;;;;;;;;;;;;;;;;;
2022/05/25 07:15:42;;;;;;;12.23;8.55;;;13.70;99.90;;;;;;5040321;28;20041;-82
2022/05/25 07:21:33;;;;;;;13.35;9.77;;;13.80;99.90;;;;;;4987704;28;20046;-80
2022/05/25 07:24:48;;;;;;;12.07;9.18;;;13.90;99.90;;;;;;4936646;29;20048;-80
2022/05/25 07:27:20;;;;;;;12.23;9.35;;;14.00;99.90;;;;;;4917727;29;20515;-81
2022/05/25 07:34:40;;;;;;;10.10;8.70;;;14.30;99.90;;;;;;4974800;28;20379;-81
2022/05/25 07:38:17;;;;;;;8.68;7.55;;;14.70;99.90;;;;;;4963601;28;20121;-81
2022/05/25 07:41:26;;;;;;;9.93;8.07;;;15.00;99.90;;;;;;4959336;28;20065;-80
2022/05/25 07:45:09;;;;;;;8.15;6.70;;;15.40;99.90;;;;;;4962282;28;20736;-81
2022/05/25 07:48:52;;;;;;;8.27;6.60;;;15.80;99.90;;;;;;4913309;29;20044;-80
2022/05/25 07:56:13;;;;;;;8.93;5.20;;;17.10;99.90;;;;;;4880419;29;20112;-81
2022/05/25 08:12:17;;;;;;;5.28;2.95;;;20.70;99.90;;;;;;5064552;28;20563;-81
2022/05/25 08:14:44;;;;;;;5.60;3.17;;;21.10;99.90;;;;;;5055248;28;20079;-81
2022/05/25 08:23:56;;;;;;;3.95;3.28;;;21.00;99.90;;;;;;5071620;28;20053;-81
2022/05/25 08:26:21;;;;;;;5.65;3.70;;;20.50;99.90;;;;;;5060929;28;20090;-82
2022/05/25 08:28:47;;;;;;;4.60;3.47;;;20.10;99.90;;;;;;5050804;28;20029;-81
2022/05/25 08:31:12;;;;;;;4.57;3.38;;;20.00;99.90;;;;;;5059772;28;20551;-81
2022/05/25 08:33:38;;;;;;;3.50;2.92;;;20.00;99.90;;;;;;5034491;28;20033;-82
2022/05/25 08:36:03;;;;;;;3.65;3.17;;;20.20;99.90;;;;;;5034242;28;20049;-81
2022/05/25 08:38:29;;;;;;;5.53;3.47;;;20.30;99.90;;;;;;5029509;28;20033;-80
2022/05/25 08:40:55;;;;;;;4.75;3.53;;;20.70;99.90;;;;;;5042608;28;20043;-84
2022/05/25 08:43:24;;;;;;;3.80;3.38;;;21.10;99.90;;;;;;5024739;28;20413;-83
2022/05/25 08:46:00;;;;;;;3.42;3.13;;;21.30;99.90;;;;;;5051471;28;20120;-83
2022/05/25 08:48:28;;;;;;;3.47;3.17;;;21.10;99.90;;;;;;5036216;28;20032;-84
2022/05/25 08:51:00;;;;;;;4.38;3.65;;;20.50;99.90;;;;;;5027716;28;20047;-83
2022/05/25 08:53:26;;;;;;;4.38;3.60;;;20.00;99.90;;;;;;5031190;28;20040;-83
2022/05/25 08:56:18;;;;;;;5.53;4.10;;;19.80;99.90;;;;;;5037135;28;20075;-84
2022/05/25 08:58:52;;;;;;;5.00;3.72;;;20.00;99.90;;;;;;5024967;28;20126;-83
2022/05/25 09:01:56;;;;;;;4.25;3.22;;;20.30;99.90;;;;;;5036676;28;20037;-83
2022/05/25 09:04:36;;;;;;;4.03;3.63;;;20.40;99.90;;;;;;5038728;28;20405;-83
2022/05/25 09:07:09;;;;;;;5.43;3.70;;;19.90;99.90;;;;;;5042896;28;20040;-83
2022/05/25 09:09:38;;;;;;;;;;;19.80;99.90;;;;;;5033701;28;20044;-83
2022/05/25 09:12:12;;;;;;;4.13;3.38;;;20.10;99.90;;;;;;5021998;28;19920;-83
2022/05/25 09:14:46;;;;;;;3.95;3.03;;;20.70;99.90;;;;;;5032067;28;20040;-83
2022/05/25 09:17:20;;;;;;;4.38;3.03;;;20.90;99.90;;;;;;5024347;28;20045;-83
2022/05/25 09:19:47;;;;;;;3.35;3.05;;;20.70;99.90;;;;;;5024476;28;20448;-83
2022/05/25 09:22:25;;;;;;;5.18;3.15;;;20.60;99.90;;;;;;5032342;28;20071;-83
2022/05/25 09:24:55;;;;;;;3.90;3.50;;;20.70;99.90;;;;;;5038083;28;20048;-83
2022/05/25 09:27:26;;;;;;;4.05;3.42;;;20.50;99.90;;;;;;5024768;28;20037;-83
2022/05/25 09:29:58;;;;;;;4.05;3.30;;;20.10;99.90;;;;;;5010888;28;20033;-83
2022/05/25 09:32:42;;;;;;;2.85;2.63;;;19.80;99.90;;;;;;5007223;28;20612;-83
2022/05/25 09:35:40;;;;;;;4.10;2.70;;;19.50;99.90;;;;;;5007267;28;20063;-83
2022/05/25 09:38:14;;;;;;;2.75;2.30;;;19.40;99.90;;;;;;5008841;28;20049;-83
2022/05/25 09:40:46;;;;;;;3.40;2.70;;;19.40;99.90;;;;;;5034983;28;20523;-83
2022/05/25 09:43:21;;;;;;;3.00;2.13;;;19.50;99.90;;;;;;5020309;28;20041;-83
2022/05/25 09:45:49;;;;;;;2.85;1.92;;;19.70;99.90;;;;;;5016701;28;20422;-82
2022/05/25 09:48:35;;;;;;;3.00;1.95;;;19.80;99.90;;;;;;5013142;28;20057;-82
2022/05/25 09:51:22;;;;;;;2.10;1.90;;;19.90;99.90;;;;;;4998675;28;20056;-83
2022/05/25 09:54:02;;;;;;;3.13;2.20;;;20.00;99.90;;;;;;5021617;28;20083;-78
2022/05/25 09:56:31;;;;;;;2.20;2.00;;;20.40;99.90;;;;;;5025300;28;20498;-79
2022/05/25 09:59:03;;;;;;;2.63;2.42;;;20.90;97.80;;;;;;5015084;28;20037;-80
2022/05/25 10:01:32;;;;;;;3.63;2.47;;;21.10;99.90;;;;;;5016263;28;20076;-80
2022/05/25 10:03:59;;;;;;;3.95;3.00;;;21.30;99.90;;;;;;5019839;28;20040;-80
2022/05/25 10:06:34;;;;;;;4.07;2.70;;;21.30;99.40;;;;;;5019545;28;20125;-80
2022/05/25 10:09:07;;;;;;;4.22;2.70;;;21.30;99.70;;;;;;5003208;28;20037;-80
2022/05/25 10:11:40;;;;;;;4.15;2.63;;;21.30;97.50;;;;;;5016758;28;20104;-80
2022/05/25 10:14:28;;;;;;;2.88;2.58;;;21.80;97.50;;;;;;5017301;28;20091;-80
2022/05/25 10:17:05;;;;;;;2.70;2.08;;;22.40;87.80;;;;;;5018111;28;20048;-80
2022/05/25 10:19:34;;;;;;;2.97;2.78;;;22.60;95.60;;;;;;5002110;28;20522;-80
2022/05/25 10:22:00;;;;;;;2.60;2.40;;;22.70;98.70;;;;;;5019175;28;20087;-82
2022/05/25 10:24:41;;;;;;;3.13;2.80;;;22.80;96.00;;;;;;5017895;28;20038;-80
2022/05/25 10:27:23;;;;;;;3.80;3.40;;;22.80;96.10;;;;;;4999392;28;20491;-82
2022/05/25 10:38:28;;;;;;;4.43;3.65;;;23.40;99.40;;;;;;5039874;28;20045;-81
2022/05/25 10:40:56;;;;;;;4.10;3.53;;;23.40;94.40;;;;;;5039788;28;20525;-79
2022/05/25 10:43:28;;;;;;;3.90;3.13;;;23.50;98.30;;;;;;5038349;28;20040;-78
2022/05/25 10:45:55;;;;;;;4.00;3.53;;;23.60;98.90;;;;;;5011077;28;20078;-78
2022/05/25 10:48:26;;;;;;;4.05;3.65;;;23.90;99.90;;;;;;5027490;28;20055;-79
2022/05/25 10:50:59;;;;;;;5.35;3.53;;;24.20;99.40;;;;;;5025655;28;20037;-79
2022/05/25 10:53:36;;;;;;;;;;;24.10;96.60;;;;;;5029333;28;20045;-80
2022/05/25 10:56:13;;;;;;;3.72;2.83;;;23.80;68.80;;;;;;5021495;28;20382;-80
2022/05/25 10:59:04;;;;;;;3.80;3.40;;;24.00;95.40;;;;;;5037859;28;20045;-79
2022/05/25 11:01:50;;;;;;;5.65;3.00;;;24.40;97.40;;;;;;4982807;28;20434;-78
2022/05/25 11:04:19;;;;;;;5.32;3.22;;;24.80;95.10;;;;;;5022887;28;20040;-79
2022/05/25 11:07:21;;;;;;;3.90;3.60;;;24.70;91.70;;;;;;5029590;28;20048;-79
2022/05/25 11:09:56;;;;;;;3.55;3.25;;;24.10;91.20;;;;;;5034063;28;20127;-78
2022/05/25 11:12:48;;;;;;;4.70;3.60;;;23.50;92.00;;;;;;5037154;28;20041;-78
2022/05/25 11:15:23;;;;;;;4.20;3.30;;;22.80;94.10;;;;;;5036349;28;20095;-78
2022/05/25 11:18:06;;;;;;;5.10;3.30;;;22.20;96.10;;;;;;5017514;28;20037;-79
2022/05/25 11:20:49;;;;;;;;;;;21.90;93.30;;;;;;5012820;28;20090;-78
2022/05/25 11:23:15;;;;;;;4.97;4.00;;;21.50;89.40;;;;;;5036686;28;19924;-79
2022/05/25 11:26:08;;;;;;;4.72;4.32;;;21.30;97.90;;;;;;5036532;28;20387;-79
2022/05/25 11:28:34;;;;;;;;;;;21.10;94.90;;;;;;5034436;28;20299;-79
2022/05/25 11:31:19;;;;;;;5.90;3.67;;;20.60;93.40;;;;;;5028980;28;20064;-79
2022/05/25 11:33:59;;;;;;;4.90;4.13;;;20.20;91.50;;;;;;5034059;28;20079;-78
2022/05/25 11:36:38;;;;;;;4.85;3.53;;;19.70;96.80;;;;;;5025430;28;20095;-80
2022/05/25 11:39:40;;;;;;;4.88;3.83;;;19.10;97.30;;;;;;4997776;28;20030;-78
2022/05/25 11:42:27;;;;;;;5.32;3.83;;;18.70;99.90;;;;;;5022969;28;20044;-80
2022/05/25 11:44:57;;;;;;;4.00;2.80;;;18.20;98.50;;;;;;5014324;28;20057;-79
2022/05/25 11:47:37;;;;;;;3.22;2.92;;;17.90;99.90;;;;;;5020861;28;20052;-79
2022/05/25 11:50:11;;;;;;;3.50;3.20;;;17.90;99.90;;;;;;5019450;28;20310;-78
2022/05/25 11:52:46;;;;;;;3.90;2.30;;;18.20;99.90;;;;;;5002573;28;20041;-80
2022/05/25 11:55:22;;;;;;;3.83;2.45;;;19.10;99.90;;;;;;4999067;28;20045;-79
2022/05/25 11:58:15;;;;;;;3.28;2.97;;;19.70;98.60;;;;;;4999247;28;20492;-78
2022/05/25 12:01:04;;;;;;;4.18;3.05;;;20.10;98.80;;;;;;4999085;28;20041;-80
2022/05/25 12:04:20;;;;;;;4.10;3.55;;;20.20;96.60;;;;;;5015821;28;20458;-79
2022/05/25 12:06:59;;;;;;;4.50;3.45;;;20.40;97.90;;;;;;4986064;28;20110;-79
2022/05/25 12:09:44;;;;;;;4.03;3.10;;;20.80;97.50;;;;;;5016385;28;20077;-78
2022/05/25 12:12:20;;;;;;;3.30;2.38;;;21.30;93.00;;;;;;4999914;28;20261;-81
2022/05/25 12:14:52;;;;;;;3.65;2.10;;;21.80;88.10;;;;;;5017044;28;20033;-80
2022/05/25 12:17:40;;;;;;;2.60;2.08;;;22.10;90.40;;;;;;5013343;28;20121;-80
2022/05/25 12:20:09;;;;;;;2.92;1.88;;;22.30;79.80;;;;;;5026332;28;20075;-81
2022/05/25 12:22:35;;;;;;;2.45;1.60;;;22.50;86.30;;;;;;5026971;28;20033;-80
2022/05/25 12:25:13;;;;;;;2.72;1.20;;;22.70;89.20;;;;;;5018453;28;20041;-80
2022/05/25 12:27:48;;;;;;;2.38;1.30;;;22.90;81.60;;;;;;5013257;28;20414;-79
2022/05/25 12:30:26;;;;;;;2.67;1.10;;;22.90;72.00;;;;;;5028221;28;20037;-78
2022/05/25 12:32:52;;;;;;;2.10;0.95;;;22.60;76.60;;;;;;5032113;28;20060;-79
2022/05/25 12:35:18;;;;;;;2.95;1.08;;;21.90;79.40;;;;;;5011355;28;20494;-79
2022/05/25 12:37:46;;;;;;;2.25;1.10;;;21.20;80.10;;;;;;5013481;28;20039;-80
2022/05/25 12:40:30;;;;;;;2.88;1.55;;;20.80;81.80;;;;;;5011760;28;20041;-79
2022/05/25 12:42:57;;;;;;;2.55;1.20;;;20.50;85.40;;;;;;5035622;28;20044;-79
2022/05/25 12:48:38;;;;;;;2.67;0.93;;;20.30;92.40;;;;;;5036710;28;20037;-79
2022/05/25 12:51:26;;;;;;;3.47;0.93;;;20.80;92.70;;;;;;5002593;28;20041;-79
2022/05/25 12:53:52;;;;;;;4.85;1.02;;;21.30;83.40;;;;;;5028936;28;20033;-79
2022/05/25 12:56:18;;;;;;;2.65;0.93;;;21.50;88.80;;;;;;5039728;28;20043;-79
2022/05/25 12:58:47;;;;;;;1.95;0.73;;;21.90;83.60;;;;;;5023405;28;20123;-79
2022/05/25 13:01:26;;;;;;;1.52;0.70;;;22.20;79.20;;;;;;5032446;28;20042;-80
2022/05/25 13:03:54;;;;;;;2.95;0.68;;;22.40;82.80;;;;;;5032544;28;20408;-79
2022/05/25 13:06:44;;;;;;;1.17;0.70;;;22.40;77.30;;;;;;5011907;28;20036;-80
2022/05/25 13:09:16;;;;;;;2.22;0.60;;;22.40;75.30;;;;;;4959276;28;20052;-80
2022/05/25 13:11:50;;;;;;;3.10;0.68;;;22.60;79.10;;;;;;5005225;28;22225;-81
2022/05/25 13:14:16;;;;;;;3.10;0.60;;;22.80;77.30;;;;;;5024936;28;20487;-80
2022/05/25 13:16:45;;;;;;;2.88;0.88;;;22.90;75.10;;;;;;5032531;28;20048;-79
2022/05/25 13:19:31;;;;;;;2.45;1.33;;;23.00;76.80;;;;;;5040508;28;20136;-79
2022/05/25 13:22:03;;;;;;;1.60;0.60;;;22.80;70.80;;;;;;5032966;28;20037;-80
2022/05/25 13:25:02;;;;;;;2.72;0.63;;;22.50;74.00;;;;;;5035015;28;20554;-80
2022/05/25 13:28:03;;;;;;;1.60;0.70;;;22.50;76.40;;;;;;5024461;28;20487;-81
2022/05/25 13:30:47;;;;;;;3.40;0.90;;;22.70;74.50;;;;;;5036351;28;20141;-80
2022/05/25 13:33:20;;;;;;;1.42;0.70;;;22.90;74.20;;;;;;5004436;28;20041;-79
2022/05/25 13:36:07;;;;;;;3.13;0.63;;;22.70;73.10;;;;;;5024920;28;20599;-80
2022/05/25 13:39:05;;;;;;;2.63;0.80;;;22.30;70.80;;;;;;5012931;28;20052;-80
2022/05/25 13:41:39;;;;;;;2.10;0.60;;;21.90;72.60;;;;;;5022357;28;20036;-81
2022/05/25 13:44:12;;;;;;;1.08;0.60;;;21.80;77.70;;;;;;5020963;28;20083;-79
2022/05/25 13:46:55;;;;;;;1.23;0.60;;;21.80;75.30;;;;;;5029477;28;20037;-79
2022/05/25 13:49:23;;;;;;;;;;;21.60;76.80;;;;;;5025017;28;20042;-80
2022/05/25 13:51:50;;;;;;;2.20;0.70;;;21.40;71.70;;;;;;5007540;28;19917;-80
2022/05/25 13:54:33;;;;;;;3.35;0.60;;;21.10;72.60;;;;;;5030143;28;20043;-80
2022/05/25 13:56:59;;;;;;;1.50;0.50;;;20.60;69.20;;;;;;5034232;28;20048;-79
2022/05/25 13:59:35;;;;;;;2.95;0.75;;;20.20;74.30;;;;;;5042512;28;20041;-80
2022/05/25 14:02:21;;;;;;;1.77;0.60;;;19.80;73.50;;;;;;5011978;28;20045;-81
2022/05/25 14:04:47;;;;;;;1.75;0.50;;;19.50;72.90;;;;;;5006950;28;20041;-79
2022/05/25 14:07:32;;;;;;;1.15;0.55;;;19.50;82.60;;;;;;5024357;28;20041;-78
2022/05/25 14:13:24;;;;;;;3.28;1.00;;;19.70;86.00;;;;;;5093012;22;20133;-80
2022/05/25 14:16:08;;;;;;;2.85;1.00;;;19.80;81.00;;;;;;5078340;28;20578;-80
2022/05/25 14:19:05;;;;;;;3.33;0.80;;;19.70;76.30;;;;;;5094968;28;20406;-80
2022/05/25 14:21:49;;;;;;;2.70;0.90;;;19.60;80.20;;;;;;5085363;28;20471;-79
2022/05/25 14:24:28;;;;;;;2.70;0.85;;;19.50;82.70;;;;;;5057745;28;20097;-78
2022/05/25 14:27:20;;;;;;;3.67;0.93;;;19.50;84.30;;;;;;5082492;22;20490;-80
2022/05/25 14:30:20;;;;;;;2.45;0.88;;;19.50;81.70;;;;;;5036317;28;20111;-79
2022/05/25 14:33:18;;;;;;;1.80;0.98;;;19.60;82.50;;;;;;5034098;28;20033;-79
2022/05/25 14:36:26;;;;;;;2.45;0.95;;;19.50;83.40;;;;;;5032134;28;20089;-81
2022/05/25 14:39:02;;;;;;;3.03;0.90;;;19.40;82.50;;;;;;5019146;28;20039;-78
2022/05/25 14:41:33;;;;;;;2.42;0.80;;;19.30;81.10;;;;;;5034341;28;20037;-79
2022/05/25 14:44:06;;;;;;;1.42;0.88;;;19.30;87.90;;;;;;5035580;28;20051;-78
2022/05/25 14:46:43;;;;;;;1.75;1.02;;;19.30;88.70;;;;;;5035368;28;20032;-79
2022/05/25 14:49:22;;;;;;;5.00;1.20;;;19.30;83.00;;;;;;5033439;28;20137;-79